Time;durP1;ratioP1;P1;durP2;ratioP2;P2;SDS_P1;SDS_P2;PMS_P1;PMS_P2;Temp;Humidity;BMP_temperature;BMP_pressure;BME280_temperature;BME280_humidity;BME280_pressure;Samples;Min_cycle;Max_cycle;Signal;HPM_P1;HPM_P2
2023/04/28 00:02:29;;;;;;;1.20;0.62;;;;;;;24.19;35.69;99205.86;1898979;74;28087;-47
2023/04/28 00:05:17;;;;;;;0.62;0.62;;;;;;;24.19;35.72;99204.48;1894673;75;28558;-51
2023/04/28 00:08:05;;;;;;;0.60;0.60;;;;;;;24.17;35.74;99210.23;1904581;74;28060;-47
2023/04/28 00:10:54;;;;;;;0.50;0.50;;;;;;;24.17;35.71;99206.66;1877802;76;28120;-45
2023/04/28 00:13:42;;;;;;;0.70;0.70;;;;;;;24.19;35.72;99209.98;1881335;75;28548;-45
2023/04/28 00:16:30;;;;;;;0.57;0.57;;;;;;;24.18;35.73;99209.70;1905459;74;28063;-45
2023/04/28 00:19:19;;;;;;;0.57;0.57;;;;;;;24.16;35.75;99204.98;1892385;74;28098;-47
2023/04/28 00:22:07;;;;;;;0.55;0.55;;;;;;;24.19;35.72;99208.61;1888599;74;28193;-47
2023/04/28 00:24:56;;;;;;;0.57;0.57;;;;;;;24.19;35.74;99208.07;1888126;74;28281;-44
2023/04/28 00:27:44;;;;;;;0.30;0.30;;;;;;;24.18;35.73;99207.77;1903976;74;28180;-47
2023/04/28 00:30:32;;;;;;;0.93;0.78;;;;;;;24.18;35.77;99209.14;1859082;76;28150;-46
2023/04/28 00:33:20;;;;;;;0.53;0.53;;;;;;;24.20;35.73;99201.48;1893236;75;28130;-47
2023/04/28 00:36:10;;;;;;;0.42;0.42;;;;;;;24.18;35.78;99200.91;1895606;75;28161;-46
2023/04/28 00:38:59;;;;;;;0.50;0.50;;;;;;;24.18;35.82;99198.73;1886646;75;28403;-45
2023/04/28 00:41:47;;;;;;;0.62;0.62;;;;;;;24.16;35.82;99199.50;1868764;76;28056;-48
2023/04/28 00:44:35;;;;;;;0.50;0.50;;;;;;;24.16;35.85;99201.70;1895164;75;28063;-47
2023/04/28 00:47:24;;;;;;;0.80;0.80;;;;;;;24.15;35.83;99197.31;1896478;75;28059;-45
2023/04/28 00:50:13;;;;;;;0.70;0.70;;;;;;;24.16;35.86;99191.26;1885089;75;28060;-45
2023/04/28 00:53:01;;;;;;;0.50;0.50;;;;;;;24.16;35.84;99188.52;1894528;75;28110;-46
2023/04/28 00:55:52;;;;;;;0.57;0.57;;;;;;;24.18;35.86;99181.70;1894590;75;28139;-49
2023/04/28 00:58:41;;;;;;;0.45;0.45;;;;;;;24.18;35.85;99187.19;1879185;75;28214;-47
2023/04/28 01:01:29;;;;;;;0.70;0.70;;;;;;;24.16;35.87;99185.23;1886831;75;28172;-45
2023/04/28 01:04:20;;;;;;;0.95;0.45;;;;;;;24.15;35.85;99184.13;1895051;75;28055;-47
2023/04/28 01:07:09;;;;;;;0.62;0.62;;;;;;;24.15;35.86;99177.27;1880079;75;28064;-47
2023/04/28 01:09:57;;;;;;;0.50;0.45;;;;;;;24.15;35.86;99184.13;1873626;75;28298;-46
2023/04/28 01:12:47;;;;;;;0.50;0.50;;;;;;;24.17;35.84;99181.95;1883840;75;28182;-46
2023/04/28 01:15:36;;;;;;;0.50;0.50;;;;;;;24.16;35.92;99187.98;1879374;75;28043;-46
2023/04/28 01:18:25;;;;;;;0.70;0.70;;;;;;;24.17;35.88;99184.17;1900660;75;28118;-46
2023/04/28 01:21:14;;;;;;;1.25;0.60;;;;;;;24.17;35.83;99185.55;1896458;75;28080;-45
2023/04/28 01:24:05;;;;;;;0.60;0.60;;;;;;;24.15;35.83;99182.22;1868663;76;28109;-46
2023/04/28 01:26:54;;;;;;;0.45;0.45;;;;;;;24.16;35.92;99176.16;1891791;75;28158;-46
2023/04/28 01:29:43;;;;;;;0.50;0.50;;;;;;;24.17;35.92;99182.80;1894511;75;28142;-49
2023/04/28 01:32:31;;;;;;;0.57;0.57;;;;;;;24.18;35.86;99185.01;1884293;75;28104;-44
2023/04/28 01:35:19;;;;;;;0.60;0.60;;;;;;;24.17;35.84;99186.08;1868785;76;28194;-45
2023/04/28 01:38:07;;;;;;;0.60;0.60;;;;;;;24.16;35.91;99190.73;1860494;76;28129;-49
2023/04/28 01:40:57;;;;;;;0.77;0.77;;;;;;;24.16;35.91;99179.75;1896439;75;28095;-47
2023/04/28 01:43:45;;;;;;;0.57;0.57;;;;;;;24.14;35.92;99183.30;1876179;75;28204;-45
2023/04/28 01:46:35;;;;;;;0.68;0.68;;;;;;;24.15;35.94;99190.45;1890607;75;28631;-48
2023/04/28 01:49:23;;;;;;;0.53;0.53;;;;;;;24.17;35.92;99197.05;1854818;76;28222;-47
2023/04/28 01:52:12;;;;;;;0.70;0.70;;;;;;;24.16;35.98;99200.87;1892659;75;28136;-48
2023/04/28 01:55:00;;;;;;;0.50;0.50;;;;;;;24.17;35.93;99197.89;1857044;77;28214;-44
2023/04/28 01:57:48;;;;;;;0.50;0.50;;;;;;;24.16;35.95;99193.47;1874111;75;28138;-48
2023/04/28 02:00:38;;;;;;;0.60;0.60;;;;;;;24.15;35.94;99191.83;1889022;75;28561;-45
2023/04/28 02:03:27;;;;;;;0.62;0.62;;;;;;;24.18;35.93;99197.36;1871275;75;28196;-47
2023/04/28 02:06:16;;;;;;;0.60;0.60;;;;;;;24.15;35.98;99197.31;1882705;75;28103;-47
2023/04/28 02:09:04;;;;;;;0.70;0.70;;;;;;;24.14;35.98;99192.89;1881218;75;28096;-46
2023/04/28 02:11:54;;;;;;;0.53;0.53;;;;;;;24.17;36.01;99196.52;1893224;75;28193;-49
2023/04/28 02:14:42;;;;;;;0.55;0.55;;;;;;;24.17;35.97;99197.89;1884184;75;28061;-45
2023/04/28 02:17:31;;;;;;;0.40;0.40;;;;;;;24.16;36.04;99196.75;1868639;76;28138;-47
2023/04/28 02:20:19;;;;;;;0.50;0.50;;;;;;;24.14;36.07;99191.52;1883638;75;28060;-44
2023/04/28 02:23:09;;;;;;;0.50;0.50;;;;;;;24.16;36.06;99200.33;1896669;75;28125;-45
2023/04/28 02:26:02;;;;;;;0.50;0.50;;;;;;;24.17;36.05;99202.01;1886953;75;28064;-49
2023/04/28 02:28:51;;;;;;;2.00;0.60;;;;;;;24.18;36.07;99201.47;1887687;75;28100;-46
2023/04/28 02:31:40;;;;;;;0.40;0.40;;;;;;;24.15;36.08;99204.17;1900679;75;28198;-48
2023/04/28 02:34:28;;;;;;;0.40;0.40;;;;;;;24.15;36.09;99197.85;1903157;75;28063;-46
2023/04/28 02:37:17;;;;;;;0.50;0.50;;;;;;;24.14;36.14;99201.13;1905477;74;28095;-45
2023/04/28 02:40:06;;;;;;;0.60;0.60;;;;;;;24.15;36.14;99197.85;1898622;74;28031;-47
2023/04/28 02:42:55;;;;;;;0.42;0.42;;;;;;;24.16;36.12;99200.33;1884644;74;28099;-45
2023/04/28 02:45:43;;;;;;;0.50;0.40;;;;;;;24.16;36.14;99198.13;1902785;74;28115;-48
2023/04/28 02:48:34;;;;;;;0.65;0.65;;;;;;;24.17;36.23;99193.77;1901949;75;28126;-45
2023/04/28 02:51:23;;;;;;;0.70;0.62;;;;;;;24.17;36.17;99190.19;1877984;76;28080;-45
2023/04/28 02:54:12;;;;;;;0.57;0.57;;;;;;;24.15;36.23;99184.13;1884048;74;28587;-47
2023/04/28 02:57:03;;;;;;;2.00;0.50;;;;;;;24.16;36.20;99183.86;1888418;74;28206;-47
2023/04/28 02:59:51;;;;;;;0.45;0.45;;;;;;;24.18;36.17;99197.36;1877139;76;28157;-46
2023/04/28 03:02:40;;;;;;;0.50;0.50;;;;;;;24.15;36.22;99197.85;1900996;74;28060;-47
2023/04/28 03:05:29;;;;;;;0.40;0.40;;;;;;;24.15;36.27;99199.22;1879846;75;28068;-46
2023/04/28 03:08:19;;;;;;;0.50;0.50;;;;;;;24.13;36.27;99199.48;1902539;75;28121;-47
2023/04/28 03:11:07;;;;;;;0.60;0.60;;;;;;;24.14;36.27;99194.27;1878117;76;28060;-47
2023/04/28 03:13:56;;;;;;;0.80;0.55;;;;;;;24.15;36.22;99201.44;1898698;75;28056;-45
2023/04/28 03:16:45;;;;;;;0.50;0.50;;;;;;;24.16;36.21;99196.75;1900969;75;28471;-46
2023/04/28 03:19:33;;;;;;;0.50;0.50;;;;;;;24.16;36.21;99193.47;1905008;75;28176;-44
2023/04/28 03:22:21;;;;;;;0.50;0.50;;;;;;;24.09;36.23;99179.63;1877794;76;28171;-46
2023/04/28 03:25:10;;;;;;;0.50;0.50;;;;;;;24.15;36.29;99197.85;1897421;75;28048;-48
2023/04/28 03:28:00;;;;;;;0.50;0.50;;;;;;;24.14;36.27;99202.50;1900607;75;28119;-45
2023/04/28 03:30:48;;;;;;;0.57;0.57;;;;;;;24.15;36.25;99202.80;1872914;76;28262;-46
2023/04/28 03:33:37;;;;;;;0.50;0.50;;;;;;;24.15;36.23;99206.08;1869361;76;28111;-48
2023/04/28 03:36:26;;;;;;;0.30;0.30;;;;;;;24.14;36.23;99212.11;1894331;75;28051;-47
2023/04/28 03:39:15;;;;;;;0.55;0.55;;;;;;;24.13;36.23;99213.20;1896320;75;28149;-47
2023/04/28 03:42:04;;;;;;;0.40;0.40;;;;;;;24.16;36.27;99223.66;1895720;75;28154;-46
2023/04/28 03:44:54;;;;;;;0.50;0.50;;;;;;;24.14;36.28;99222.25;1890985;75;28167;-49
2023/04/28 03:47:42;;;;;;;0.60;0.60;;;;;;;24.16;36.30;99224.19;1894783;75;28151;-45
2023/04/28 03:50:31;;;;;;;0.53;0.53;;;;;;;24.15;36.25;99222.02;1895768;75;28064;-50
2023/04/28 03:53:20;;;;;;;0.42;0.42;;;;;;;24.16;36.26;99225.56;1868853;76;28917;-48
2023/04/28 03:56:09;;;;;;;0.50;0.50;;;;;;;24.16;36.20;99236.55;1874794;75;28136;-46
2023/04/28 03:58:59;;;;;;;0.60;0.60;;;;;;;24.14;36.22;99231.85;1896915;75;28060;-47
2023/04/28 04:01:47;;;;;;;1.77;0.57;;;;;;;24.12;36.25;99236.23;1904813;74;28076;-45
2023/04/28 04:04:36;;;;;;;0.60;0.50;;;;;;;24.13;36.25;99232.42;1898886;74;28170;-45
2023/04/28 04:07:25;;;;;;;0.60;0.60;;;;;;;24.14;36.27;99232.69;1893300;75;28064;-47
2023/04/28 04:10:13;;;;;;;0.50;0.50;;;;;;;24.15;36.20;99238.48;1886559;75;28166;-46
2023/04/28 04:13:03;;;;;;;0.50;0.50;;;;;;;24.12;36.22;99238.97;1896272;75;28166;-46
2023/04/28 04:15:52;;;;;;;0.45;0.45;;;;;;;24.13;36.23;99239.81;1868495;76;28103;-47
2023/04/28 04:18:41;;;;;;;0.45;0.45;;;;;;;24.12;36.24;99244.47;1889814;75;28144;-46
2023/04/28 04:21:37;;;;;;;0.68;0.68;;;;;;;24.13;36.22;99251.63;1897972;75;28064;-45
2023/04/28 04:24:25;;;;;;;0.30;0.30;;;;;;;24.11;36.25;99248.27;1895669;75;28129;-46
2023/04/28 04:27:14;;;;;;;0.50;0.50;;;;;;;24.12;36.23;99244.47;1868822;76;28153;-46
2023/04/28 04:30:02;;;;;;;0.40;0.40;;;;;;;24.12;36.23;99233.48;1889795;75;28127;-50
2023/04/28 04:32:51;;;;;;;0.57;0.57;;;;;;;24.12;36.26;99225.78;1876490;75;28101;-47
2023/04/28 04:35:39;;;;;;;0.40;0.40;;;;;;;24.13;36.23;99229.67;1884962;75;28248;-46
2023/04/28 04:38:28;;;;;;;0.40;0.40;;;;;;;24.13;36.30;99238.44;1884290;75;28147;-47
2023/04/28 04:41:24;;;;;;;0.40;0.40;;;;;;;24.12;36.25;99245.00;1868384;75;28064;-48
2023/04/28 04:44:08;;;;;;;0.50;0.50;;;;;;;24.13;36.25;99228.83;1879732;75;28115;-48
2023/04/28 04:46:58;;;;;;;0.43;0.43;;;;;;;24.14;36.25;99234.59;1884887;75;28126;-49
2023/04/28 04:49:49;;;;;;;0.50;0.50;;;;;;;24.12;36.28;99226.63;1884278;75;28120;-46
2023/04/28 04:52:38;;;;;;;0.50;0.50;;;;;;;24.10;36.26;99225.21;1867859;75;29062;-47
2023/04/28 04:55:27;;;;;;;0.60;0.60;;;;;;;24.15;36.19;99229.41;1880046;75;28176;-48
2023/04/28 04:58:16;;;;;;;0.43;0.43;;;;;;;24.12;36.20;99234.86;1886639;75;28214;-45
2023/04/28 05:01:06;;;;;;;0.42;0.42;;;;;;;24.10;36.23;99234.28;1869204;75;28177;-49
2023/04/28 05:03:54;;;;;;;0.40;0.40;;;;;;;24.12;36.25;99245.84;1887685;75;28689;-47
2023/04/28 05:06:43;;;;;;;0.50;0.50;;;;;;;24.11;36.33;99242.78;1898060;75;28128;-48
2023/04/28 05:09:33;;;;;;;0.40;0.40;;;;;;;24.11;36.41;99240.05;1868803;76;28217;-48
2023/04/28 05:12:21;;;;;;;0.70;0.70;;;;;;;24.12;36.40;99234.02;1863422;76;28100;-46
2023/04/28 05:15:10;;;;;;;0.50;0.50;;;;;;;24.12;36.48;99243.62;1898617;75;28115;-48
2023/04/28 05:18:05;;;;;;;0.40;0.40;;;;;;;24.12;36.45;99236.77;1892609;75;28100;-48
2023/04/28 05:20:50;;;;;;;0.90;0.90;;;;;;;24.15;36.35;99243.13;1870527;75;28100;-49
2023/04/28 05:23:39;;;;;;;1.00;0.73;;;;;;;24.15;36.28;99252.20;1877470;75;28173;-50
2023/04/28 05:26:28;;;;;;;0.68;0.53;;;;;;;24.02;36.39;99247.84;1882531;75;28041;-49
2023/04/28 05:29:18;;;;;;;0.65;0.65;;;;;;;24.01;36.46;99245.36;1858955;75;28192;-51
2023/04/28 05:32:07;;;;;;;1.00;0.70;;;;;;;24.06;36.39;99253.70;1868621;76;28128;-51
2023/04/28 05:34:55;;;;;;;0.53;0.53;;;;;;;24.07;36.35;99250.40;1887316;75;28253;-50
2023/04/28 05:37:44;;;;;;;0.60;0.60;;;;;;;24.05;36.34;99252.00;1893753;75;28120;-52
2023/04/28 05:40:32;;;;;;;0.70;0.70;;;;;;;24.01;36.46;99260.45;1883020;75;28206;-50
2023/04/28 05:43:22;;;;;;;0.70;0.70;;;;;;;24.02;36.49;99258.81;1869268;76;28060;-51
2023/04/28 05:46:11;;;;;;;0.60;0.60;;;;;;;24.03;36.48;99250.05;1890389;75;28157;-46
2023/04/28 05:48:59;;;;;;;0.62;0.62;;;;;;;24.03;36.47;99255.01;1893700;75;28155;-49
2023/04/28 05:51:49;;;;;;;0.70;0.70;;;;;;;23.99;36.59;99257.13;1883553;75;28107;-49
2023/04/28 05:54:37;;;;;;;0.80;0.80;;;;;;;24.03;36.57;99252.80;1881628;75;28251;-49
2023/04/28 05:57:27;;;;;;;0.50;0.50;;;;;;;24.04;36.48;99240.72;1891105;75;28236;-48
2023/04/28 06:00:17;;;;;;;0.98;0.80;;;;;;;24.03;36.51;99242.66;1897632;75;28173;-50
2023/04/28 06:03:07;;;;;;;0.60;0.60;;;;;;;24.05;36.49;99252.00;1869095;76;28081;-51
2023/04/28 06:05:56;;;;;;;0.70;0.70;;;;;;;23.98;36.50;99241.73;1867206;76;28224;-47
2023/04/28 06:08:46;;;;;;;0.70;0.70;;;;;;;24.06;36.45;99245.48;1867437;76;28650;-48
2023/04/28 06:11:35;;;;;;;1.00;0.55;;;;;;;24.08;36.42;99243.31;1869005;76;28059;-49
2023/04/28 06:14:23;;;;;;;0.60;0.60;;;;;;;24.08;36.45;99250.17;1882525;75;28145;-49
2023/04/28 06:17:12;;;;;;;0.70;0.70;;;;;;;24.10;36.43;99258.14;1893585;75;28064;-50
2023/04/28 06:20:00;;;;;;;0.70;0.70;;;;;;;24.10;36.42;99248.00;1893792;75;28147;-53
2023/04/28 06:22:49;;;;;;;0.80;0.80;;;;;;;24.12;36.42;99252.70;1883715;75;28043;-49
2023/04/28 06:25:38;;;;;;;0.40;0.40;;;;;;;24.09;36.42;99247.70;1881380;75;28063;-50
2023/04/28 06:28:26;;;;;;;2.05;0.78;;;;;;;24.10;36.42;99250.75;1893515;75;28186;-47
2023/04/28 06:31:15;;;;;;;0.55;0.55;;;;;;;24.12;36.43;99245.00;1879746;75;28192;-50
2023/04/28 06:34:03;;;;;;;0.60;0.60;;;;;;;24.12;36.43;99241.72;1895669;75;28305;-48
2023/04/28 06:36:52;;;;;;;0.50;0.50;;;;;;;24.14;36.42;99245.04;1890628;75;28087;-47
2023/04/28 06:39:40;;;;;;;0.60;0.60;;;;;;;24.15;36.41;99248.09;1895492;75;28155;-51
2023/04/28 06:42:28;;;;;;;0.53;0.53;;;;;;;24.17;36.38;99249.20;1880747;75;28160;-51
2023/04/28 06:45:18;;;;;;;0.62;0.62;;;;;;;24.16;36.35;99255.22;1869055;76;28630;-49
2023/04/28 06:48:07;;;;;;;0.60;0.60;;;;;;;24.16;36.39;99257.13;1875017;75;28119;-49
2023/04/28 06:50:57;;;;;;;1.10;0.50;;;;;;;24.16;36.41;99260.71;1895205;75;28196;-46
2023/04/28 06:53:46;;;;;;;0.40;0.40;;;;;;;24.14;36.49;99265.62;1889071;75;28069;-48
2023/04/28 06:56:36;;;;;;;0.57;0.57;;;;;;;24.17;36.43;99254.69;1896317;75;28090;-49
2023/04/28 06:59:24;;;;;;;0.70;0.70;;;;;;;24.17;36.44;99261.55;1892727;75;28081;-50
2023/04/28 07:02:13;;;;;;;0.50;0.50;;;;;;;24.18;36.46;99261.85;1890899;75;28122;-49
2023/04/28 07:05:01;;;;;;;0.70;0.70;;;;;;;24.19;36.41;99268.98;1887475;75;28084;-49
2023/04/28 07:07:50;;;;;;;0.33;0.33;;;;;;;24.17;36.45;99270.63;1868886;76;28244;-53
2023/04/28 07:10:38;;;;;;;0.50;0.50;;;;;;;24.18;36.43;99270.09;1890104;75;28147;-52
2023/04/28 07:13:26;;;;;;;0.40;0.40;;;;;;;24.17;36.50;99269.25;1893700;75;38600;-48
2023/04/28 07:16:15;;;;;;;0.50;0.50;;;;;;;24.20;36.45;99267.35;1895125;75;28102;-49
2023/04/28 07:19:03;;;;;;;0.40;0.40;;;;;;;24.20;36.43;99260.48;1872151;75;28134;-47
2023/04/28 07:21:52;;;;;;;0.68;0.68;;;;;;;24.17;36.48;99258.27;1896361;75;28224;-51
2023/04/28 07:24:40;;;;;;;0.40;0.40;;;;;;;24.17;36.49;99266.50;1892373;75;28154;-52
2023/04/28 07:27:28;;;;;;;1.00;0.40;;;;;;;24.20;36.48;99265.17;1895891;75;28111;-51
2023/04/28 07:30:16;;;;;;;0.40;0.40;;;;;;;24.19;36.46;99258.84;1901375;75;28134;-49
2023/04/28 07:33:05;;;;;;;0.40;0.40;;;;;;;24.19;36.50;99256.10;1893545;75;28081;-50
2023/04/28 07:35:53;;;;;;;0.80;0.50;;;;;;;24.20;36.50;99262.43;1894216;75;28104;-48
2023/04/28 07:38:42;;;;;;;0.50;0.50;;;;;;;24.17;36.61;99259.64;1877043;75;28091;-49
2023/04/28 07:41:32;;;;;;;0.78;0.60;;;;;;;24.16;36.74;99259.88;1870261;75;28133;-48
2023/04/28 07:44:20;;;;;;;0.70;0.70;;;;;;;24.20;36.59;99266.55;1881348;75;28076;-49
2023/04/28 07:47:09;;;;;;;0.42;0.42;;;;;;;24.21;36.57;99263.54;1886445;75;28072;-47
2023/04/28 07:49:59;;;;;;;0.60;0.60;;;;;;;24.19;36.56;99253.36;1869174;76;28141;-48
2023/04/28 07:52:47;;;;;;;0.57;0.57;;;;;;;24.22;36.48;99244.63;1889025;75;28141;-49
2023/04/28 07:55:36;;;;;;;0.50;0.50;;;;;;;24.21;36.55;99252.56;1879063;75;28164;-48
2023/04/28 07:58:24;;;;;;;0.53;0.53;;;;;;;24.23;36.48;99244.91;1888537;74;28181;-46
2023/04/28 08:01:13;;;;;;;0.55;0.55;;;;;;;24.22;36.50;99255.61;1894196;74;28072;-51
2023/04/28 08:04:01;;;;;;;0.40;0.40;;;;;;;24.23;36.50;99253.14;1877725;75;28112;-48
2023/04/28 08:06:50;;;;;;;0.68;0.68;;;;;;;24.23;36.53;99257.79;1897785;75;28103;-51
2023/04/28 08:09:40;;;;;;;0.57;0.57;;;;;;;24.26;36.60;99249.90;1896007;75;28542;-50
2023/04/28 08:12:28;;;;;;;0.42;0.42;;;;;;;24.25;36.57;99248.22;1869123;76;28094;-48
2023/04/28 08:15:16;;;;;;;0.50;0.50;;;;;;;24.24;36.63;99242.46;1887544;75;28143;-52
2023/04/28 08:18:05;;;;;;;0.40;0.40;;;;;;;24.24;36.63;99242.46;1881110;75;28152;-50
2023/04/28 08:20:53;;;;;;;0.70;0.70;;;;;;;24.25;36.67;99245.48;1883891;75;28064;-51
2023/04/28 08:23:42;;;;;;;0.47;0.47;;;;;;;24.26;36.67;99243.57;1893596;75;28099;-52
2023/04/28 08:26:31;;;;;;;0.45;0.45;;;;;;;24.24;36.71;99245.20;1893906;75;31139;-51
2023/04/28 08:29:19;;;;;;;0.50;0.50;;;;;;;24.24;36.76;99249.32;1894522;75;28114;-46
2023/04/28 08:32:08;;;;;;;0.40;0.40;;;;;;;24.26;36.74;99247.16;1868989;76;28122;-51
2023/04/28 08:34:57;;;;;;;0.55;0.55;;;;;;;24.27;36.69;99252.91;1890803;75;28130;-48
2023/04/28 08:37:48;;;;;;;0.60;0.60;;;;;;;24.28;36.75;99251.01;1889682;75;28088;-47
2023/04/28 08:40:36;;;;;;;0.70;0.65;;;;;;;24.28;36.82;99257.34;1896179;75;28122;-50
2023/04/28 08:43:27;;;;;;;0.40;0.40;;;;;;;24.26;36.99;99254.02;1856645;77;28455;-51
2023/04/28 08:46:18;;;;;;;0.42;0.42;;;;;;;24.28;37.08;99247.73;1874410;75;28060;-50
2023/04/28 08:49:08;;;;;;;0.60;0.60;;;;;;;24.27;37.09;99252.91;1886414;75;28611;-50
2023/04/28 08:52:00;;;;;;;0.50;0.50;;;;;;;24.29;37.01;99257.64;1885150;74;28109;-49
2023/04/28 08:54:50;;;;;;;0.42;0.42;;;;;;;24.32;37.05;99254.94;1868757;76;28187;-50
2023/04/28 08:57:45;;;;;;;0.30;0.30;;;;;;;24.30;37.06;99246.93;1878447;75;28309;-52
2023/04/28 09:00:35;;;;;;;0.80;0.80;;;;;;;24.32;37.04;99231.60;1860199;75;28142;-46
2023/04/28 09:03:23;;;;;;;0.60;0.60;;;;;;;24.30;36.97;99239.23;1896079;75;28060;-51
2023/04/28 09:06:12;;;;;;;0.50;0.50;;;;;;;24.32;37.01;99247.51;1856923;77;28129;-52
2023/04/28 09:09:20;;;;;;;0.67;0.67;;;;;;;24.33;36.93;99243.70;1877617;75;28042;-50
2023/04/28 09:12:08;;;;;;;0.60;0.60;;;;;;;24.34;36.96;99241.22;1878760;75;28214;-52
2023/04/28 09:15:00;;;;;;;1.65;0.60;;;;;;;24.32;37.04;99245.33;1868631;75;28241;-48
2023/04/28 09:17:51;;;;;;;0.77;0.77;;;;;;;24.28;37.26;99239.49;1873228;75;28140;-47
2023/04/28 09:20:39;;;;;;;0.60;0.50;;;;;;;24.28;37.41;99234.54;1868534;76;28076;-51
2023/04/28 09:23:28;;;;;;;0.90;0.60;;;;;;;24.30;37.29;99234.58;1878545;75;28100;-50
2023/04/28 09:26:17;;;;;;;0.75;0.75;;;;;;;24.34;37.31;99237.67;1884632;75;28064;-48
2023/04/28 09:29:14;;;;;;;0.50;0.50;;;;;;;24.34;37.30;99234.36;1895423;75;28056;-49
2023/04/28 09:32:21;;;;;;;0.60;0.60;;;;;;;24.35;37.27;99229.17;1857027;77;28134;-47
2023/04/28 09:35:10;;;;;;;0.55;0.55;;;;;;;24.35;37.29;99220.93;1875785;75;28117;-47
2023/04/28 09:37:59;;;;;;;0.60;0.60;;;;;;;24.34;37.37;99217.08;1886992;75;28494;-51
2023/04/28 09:41:02;;;;;;;1.03;0.93;;;;;;;24.33;37.35;99212.12;1897456;75;28103;-50
2023/04/28 09:43:51;;;;;;;0.45;0.45;;;;;;;24.34;37.38;99207.47;1869200;76;30166;-51
2023/04/28 09:46:39;;;;;;;0.70;0.70;;;;;;;24.34;37.44;99208.28;1868807;76;28063;-50
2023/04/28 09:49:28;;;;;;;0.62;0.62;;;;;;;24.35;37.42;99205.83;1890420;75;28171;-49
2023/04/28 09:52:16;;;;;;;0.50;0.50;;;;;;;24.36;37.39;99201.18;1868704;76;28233;-50
2023/04/28 09:55:12;;;;;;;0.80;0.80;;;;;;;24.36;37.55;99192.41;1868291;76;28115;-48
2023/04/28 09:57:59;;;;;;;0.42;0.42;;;;;;;24.36;37.53;99190.20;1879036;74;28173;-47
2023/04/28 10:00:50;;;;;;;0.80;0.80;;;;;;;24.38;37.49;99192.14;1894565;75;28211;-48
2023/04/28 10:03:39;;;;;;;0.60;0.60;;;;;;;24.38;37.49;99186.66;1874864;74;28620;-51
2023/04/28 10:06:29;;;;;;;0.40;0.40;;;;;;;24.37;37.55;99187.19;1891556;75;28161;-52
2023/04/28 10:09:25;;;;;;;0.60;0.60;;;;;;;24.37;37.57;99184.98;1868982;74;28157;-47
2023/04/28 10:12:08;;;;;;;0.40;0.40;;;;;;;24.39;37.48;99189.67;1869283;75;28092;-49
2023/04/28 10:14:57;;;;;;;0.53;0.53;;;;;;;24.39;37.50;99190.51;1881737;74;28178;-52
2023/04/28 10:17:48;;;;;;;0.65;0.65;;;;;;;24.41;37.49;99182.84;1882572;74;28127;-48
2023/04/28 10:20:37;;;;;;;0.65;0.65;;;;;;;24.43;37.54;99192.22;1859277;76;28204;-51
2023/04/28 10:23:48;;;;;;;0.65;0.65;;;;;;;24.42;37.48;99188.64;1887966;74;28477;-51
2023/04/28 10:26:56;;;;;;;0.60;0.60;;;;;;;24.42;37.57;99191.92;1895890;75;28048;-49
2023/04/28 10:29:46;;;;;;;0.70;0.70;;;;;;;24.39;37.62;99182.80;1875014;75;28275;-50
2023/04/28 10:32:34;;;;;;;0.70;0.70;;;;;;;24.37;37.69;99184.98;1868087;76;28151;-48
2023/04/28 10:35:29;;;;;;;1.20;0.50;;;;;;;24.38;37.69;99184.75;1869791;75;28095;-49
2023/04/28 10:38:22;;;;;;;0.65;0.57;;;;;;;24.39;37.67;99180.06;1867010;75;28238;-46
2023/04/28 10:41:13;;;;;;;0.50;0.50;;;;;;;24.39;37.63;99178.16;1885288;75;28171;-48
2023/04/28 10:44:03;;;;;;;0.40;0.40;;;;;;;24.41;37.62;99173.80;1897210;75;28120;-53
2023/04/28 10:47:03;;;;;;;1.10;0.68;;;;;;;24.41;37.57;99165.56;1868568;76;28119;-50
2023/04/28 10:50:06;;;;;;;0.60;0.60;;;;;;;24.40;37.58;99159.23;1869016;76;28134;-49
2023/04/28 10:52:55;;;;;;;0.80;0.80;;;;;;;24.41;37.55;99148.52;1893145;75;28103;-49
2023/04/28 10:55:43;;;;;;;0.60;0.60;;;;;;;24.40;37.56;99146.88;1893142;75;28146;-48
2023/04/28 10:58:32;;;;;;;0.60;0.60;;;;;;;24.42;37.61;99150.20;1882559;74;28226;-50
2023/04/28 11:01:23;;;;;;;0.60;0.60;;;;;;;24.42;37.57;99139.22;1869622;75;28151;-52
2023/04/28 11:04:16;;;;;;;0.90;0.80;;;;;;;24.45;37.52;99134.59;1898446;75;28111;-49
2023/04/28 11:07:13;;;;;;;1.37;0.90;;;;;;;24.43;37.55;99138.69;1891041;75;28122;-48
2023/04/28 11:10:01;;;;;;;0.93;0.90;;;;;;;24.44;37.43;99126.59;1885037;75;28068;-51
2023/04/28 11:13:26;;;;;;;3.17;0.95;;;;;;;24.44;37.43;99126.59;1875735;75;28148;-49
2023/04/28 11:16:23;;;;;;;0.80;0.80;;;;;;;24.45;37.45;99119.50;1868676;76;28153;-50
2023/04/28 11:19:15;;;;;;;0.88;0.88;;;;;;;24.42;37.52;99113.14;1871639;75;28160;-52
2023/04/28 11:22:11;;;;;;;0.80;0.80;;;;;;;24.43;37.54;99106.57;1870181;75;28263;-50
2023/04/28 11:25:01;;;;;;;0.95;0.95;;;;;;;24.44;37.45;99108.21;1870837;75;28132;-51
2023/04/28 11:27:50;;;;;;;0.80;0.80;;;;;;;24.44;37.43;99099.98;1870982;74;28582;-47
2023/04/28 11:30:38;;;;;;;0.80;0.80;;;;;;;24.45;37.51;99096.70;1880480;75;28095;-51
2023/04/28 11:33:29;;;;;;;1.40;0.90;;;;;;;24.41;37.86;99089.50;1901293;75;28168;-51
2023/04/28 11:36:39;;;;;;;0.70;0.70;;;;;;;24.45;37.70;99083.80;1874208;75;29017;-52
2023/04/28 11:39:33;;;;;;;0.93;0.93;;;;;;;24.50;37.61;99076.16;1881286;75;28052;-47
2023/04/28 11:42:24;;;;;;;1.62;0.90;;;;;;;24.47;37.54;99069.81;1889029;75;28205;-50
2023/04/28 11:45:13;;;;;;;1.02;1.02;;;;;;;24.47;37.51;99069.81;1883591;75;28111;-49
2023/04/28 11:48:04;;;;;;;0.78;0.78;;;;;;;24.50;37.47;99063.27;1867956;75;28289;-48
2023/04/28 11:50:51;;;;;;;0.80;0.80;;;;;;;24.48;37.44;99070.11;1891626;75;28095;-49
2023/04/28 11:53:46;;;;;;;2.12;0.98;;;;;;;24.47;37.38;99058.29;1896897;75;28103;-48
2023/04/28 11:56:39;;;;;;;1.30;1.20;;;;;;;24.48;37.32;99053.06;1883539;75;28674;-49
2023/04/28 11:59:33;;;;;;;1.23;1.20;;;;;;;24.51;37.42;99043.48;1879192;75;28129;-49
2023/04/28 12:02:28;;;;;;;1.67;1.32;;;;;;;24.50;37.61;99044.05;1878322;75;28164;-50
2023/04/28 12:05:16;;;;;;;2.40;1.42;;;;;;;24.52;37.58;99039.13;1878994;74;28094;-50
2023/04/28 12:08:05;;;;;;;1.25;1.17;;;;;;;24.52;37.62;99032.80;1868740;76;28384;-49
2023/04/28 12:11:14;;;;;;;1.25;1.17;;;;;;;24.52;37.59;99036.38;1868897;76;28172;-47
2023/04/28 12:14:06;;;;;;;1.90;1.17;;;;;;;24.53;37.72;99033.06;1875102;75;28145;-49
2023/04/28 12:16:55;;;;;;;1.00;1.00;;;;;;;24.52;37.76;99034.17;1897150;75;28242;-47
2023/04/28 12:19:44;;;;;;;1.27;1.20;;;;;;;24.52;37.75;99032.80;1897015;75;28148;-46
2023/04/28 12:22:47;;;;;;;1.45;1.35;;;;;;;24.55;37.74;99035.84;1895908;75;28266;-49
2023/04/28 12:25:44;;;;;;;1.40;1.10;;;;;;;24.53;37.92;99028.41;1868709;76;28094;-50
2023/04/28 12:28:40;;;;;;;1.35;1.20;;;;;;;24.52;37.91;99029.52;1891731;75;28114;-47
2023/04/28 12:31:29;;;;;;;1.10;1.10;;;;;;;24.52;37.89;99029.52;1893559;75;28188;-50
2023/04/28 12:34:18;;;;;;;0.95;0.95;;;;;;;24.55;37.88;99024.86;1893990;75;28204;-51
2023/04/28 12:37:07;;;;;;;1.22;1.05;;;;;;;24.55;37.90;99028.98;1895130;75;28101;-48
2023/04/28 12:39:55;;;;;;;0.90;0.90;;;;;;;24.56;37.89;99027.91;1880195;75;28099;-49
2023/04/28 12:42:43;;;;;;;1.02;1.02;;;;;;;24.59;37.86;99032.89;1885769;75;28158;-50
2023/04/28 12:45:33;;;;;;;1.17;1.07;;;;;;;24.60;37.83;99030.41;1904309;75;28227;-48
2023/04/28 12:48:28;;;;;;;1.20;1.10;;;;;;;24.59;37.91;99020.53;1874355;76;28097;-51
2023/04/28 12:51:12;;;;;;;1.10;1.10;;;;;;;24.56;38.12;99027.07;1872781;76;28503;-47
2023/04/28 12:54:01;;;;;;;1.10;0.93;;;;;;;24.56;38.09;99046.30;1896248;75;28140;-50
2023/04/28 12:56:49;;;;;;;1.30;1.30;;;;;;;24.57;38.18;99003.48;1886282;75;28126;-48
2023/04/28 12:59:38;;;;;;;1.00;0.82;;;;;;;24.57;38.15;99005.40;1871656;76;31129;-49
2023/04/28 13:02:27;;;;;;;1.50;0.88;;;;;;;24.57;38.37;99009.52;1899880;75;28338;-51
2023/04/28 13:05:15;;;;;;;1.60;0.70;;;;;;;24.59;38.45;98999.94;1886496;75;28123;-48
2023/04/28 13:08:05;;;;;;;0.60;0.60;;;;;;;24.51;39.40;99011.91;1878087;76;28180;-48
2023/04/28 13:10:53;;;;;;;2.95;0.60;;;;;;;24.55;39.64;99009.76;1873208;76;28079;-53
2023/04/28 13:13:43;;;;;;;0.80;0.80;;;;;;;24.65;39.71;98999.42;1893877;75;28118;-51
2023/04/28 13:16:31;;;;;;;0.75;0.60;;;;;;;24.73;39.50;99009.95;1893369;75;28188;-54
2023/04/28 13:19:20;;;;;;;1.00;0.70;;;;;;;24.82;39.07;99024.06;1904573;75;28630;-58
2023/04/28 13:22:08;;;;;;;0.60;0.60;;;;;;;24.94;38.96;99015.11;1890324;75;28076;-58